sensor_id;sensor_type;location;lat;lon;timestamp;pressure;altitude;pressure_sealevel;temperature;humidity
56400;BME280;42298;53.638;9.876;2023-02-13T00:01:36;103577.47;;;19.08;45.45
56400;BME280;42298;53.638;9.876;2023-02-13T00:04:01;103579.13;;;19.09;45.60
56400;BME280;42298;53.638;9.876;2023-02-13T00:06:26;103580.66;;;18.96;45.84
56400;BME280;42298;53.638;9.876;2023-02-13T00:08:52;103583.25;;;18.93;45.87
56400;BME280;42298;53.638;9.876;2023-02-13T00:11:18;103578.78;;;18.92;45.96
56400;BME280;42298;53.638;9.876;2023-02-13T00:13:44;103577.81;;;19.02;45.69
56400;BME280;42298;53.638;9.876;2023-02-13T00:16:10;103582.34;;;18.98;45.67
56400;BME280;42298;53.638;9.876;2023-02-13T00:18:36;103588.06;;;19.11;45.46
56400;BME280;42298;53.638;9.876;2023-02-13T00:21:10;103579.13;;;19.09;45.89
56400;BME280;42298;53.638;9.876;2023-02-13T00:23:38;103580.78;;;19.10;45.64
56400;BME280;42298;53.638;9.876;2023-02-13T00:26:07;103569.38;;;19.07;46.17
56400;BME280;42298;53.638;9.876;2023-02-13T00:28:33;103563.44;;;18.89;46.13
56400;BME280;42298;53.638;9.876;2023-02-13T00:31:06;103566.59;;;19.07;45.73
56400;BME280;42298;53.638;9.876;2023-02-13T00:33:32;103557.09;;;18.84;45.51
56400;BME280;42298;53.638;9.876;2023-02-13T00:36:05;103571.09;;;19.02;46.13
56400;BME280;42298;53.638;9.876;2023-02-13T00:38:31;103567.72;;;18.82;46.09
56400;BME280;42298;53.638;9.876;2023-02-13T00:40:58;103565.53;;;18.79;46.28
56400;BME280;42298;53.638;9.876;2023-02-13T00:43:24;103576.16;;;18.77;46.56
56400;BME280;42298;53.638;9.876;2023-02-13T00:45:49;103568.06;;;18.75;46.21
56400;BME280;42298;53.638;9.876;2023-02-13T00:48:14;103570.34;;;18.73;46.27
56400;BME280;42298;53.638;9.876;2023-02-13T00:50:40;103556.19;;;18.65;46.47
56400;BME280;42298;53.638;9.876;2023-02-13T00:53:05;103560.09;;;18.64;46.80
56400;BME280;42298;53.638;9.876;2023-02-13T00:55:31;103560.06;;;18.69;46.20
56400;BME280;42298;53.638;9.876;2023-02-13T00:57:56;103568.59;;;18.54;46.39
56400;BME280;42298;53.638;9.876;2023-02-13T01:00:21;103565.53;;;18.55;46.69
56400;BME280;42298;53.638;9.876;2023-02-13T01:02:47;103570.50;;;18.58;46.59
56400;BME280;42298;53.638;9.876;2023-02-13T01:05:13;103569.25;;;18.69;46.68
56400;BME280;42298;53.638;9.876;2023-02-13T01:07:38;103559.28;;;18.63;46.38
56400;BME280;42298;53.638;9.876;2023-02-13T01:10:04;103567.31;;;18.70;46.26
56400;BME280;42298;53.638;9.876;2023-02-13T01:12:30;103559.84;;;18.60;46.54
56400;BME280;42298;53.638;9.876;2023-02-13T01:14:55;103557.31;;;18.64;46.43
56400;BME280;42298;53.638;9.876;2023-02-13T01:17:20;103552.50;;;18.69;46.52
56400;BME280;42298;53.638;9.876;2023-02-13T01:19:46;103560.66;;;18.66;46.08
56400;BME280;42298;53.638;9.876;2023-02-13T01:22:11;103555.72;;;18.58;46.38
56400;BME280;42298;53.638;9.876;2023-02-13T01:24:37;103554.56;;;18.59;46.59
56400;BME280;42298;53.638;9.876;2023-02-13T01:27:02;103554.47;;;18.69;46.37
56400;BME280;42298;53.638;9.876;2023-02-13T01:29:28;103556.13;;;18.70;45.67
56400;BME280;42298;53.638;9.876;2023-02-13T01:31:53;103559.09;;;18.55;46.65
56400;BME280;42298;53.638;9.876;2023-02-13T01:34:19;103542.38;;;18.50;46.82
56400;BME280;42298;53.638;9.876;2023-02-13T01:36:44;103554.94;;;18.52;46.26
56400;BME280;42298;53.638;9.876;2023-02-13T01:39:11;103553.16;;;18.61;46.81
56400;BME280;42298;53.638;9.876;2023-02-13T01:41:37;103545.91;;;18.60;46.67
56400;BME280;42298;53.638;9.876;2023-02-13T01:44:03;103547.88;;;18.60;46.46
56400;BME280;42298;53.638;9.876;2023-02-13T01:46:41;103546.56;;;18.52;46.58
56400;BME280;42298;53.638;9.876;2023-02-13T01:49:12;103542.06;;;18.56;46.25
56400;BME280;42298;53.638;9.876;2023-02-13T01:51:39;103540.97;;;18.76;46.40
56400;BME280;42298;53.638;9.876;2023-02-13T01:54:12;103540.16;;;18.75;46.23
56400;BME280;42298;53.638;9.876;2023-02-13T01:56:43;103530.38;;;18.78;45.87
56400;BME280;42298;53.638;9.876;2023-02-13T01:59:14;103535.28;;;18.86;45.93
56400;BME280;42298;53.638;9.876;2023-02-13T02:01:40;103532.19;;;18.87;45.70
56400;BME280;42298;53.638;9.876;2023-02-13T02:06:50;103517.69;;;18.85;45.60
56400;BME280;42298;53.638;9.876;2023-02-13T02:09:20;103512.31;;;18.89;45.59
56400;BME280;42298;53.638;9.876;2023-02-13T02:11:54;103515.91;;;18.94;45.12
56400;BME280;42298;53.638;9.876;2023-02-13T02:14:20;103520.53;;;18.80;45.62
56400;BME280;42298;53.638;9.876;2023-02-13T02:16:45;103520.00;;;18.78;45.80
56400;BME280;42298;53.638;9.876;2023-02-13T02:32:49;103519.09;;;18.83;45.46
56400;BME280;42298;53.638;9.876;2023-02-13T02:35:33;103518.50;;;18.86;45.13
56400;BME280;42298;53.638;9.876;2023-02-13T02:38:16;103515.66;;;18.91;45.59
56400;BME280;42298;53.638;9.876;2023-02-13T02:41:24;103508.94;;;18.92;44.83
56400;BME280;42298;53.638;9.876;2023-02-13T02:49:53;103513.19;;;18.66;45.30
56400;BME280;42298;53.638;9.876;2023-02-13T02:55:47;103506.41;;;18.72;44.72
56400;BME280;42298;53.638;9.876;2023-02-13T02:58:24;103500.84;;;18.72;45.21
56400;BME280;42298;53.638;9.876;2023-02-13T03:01:14;103509.72;;;18.74;45.18
56400;BME280;42298;53.638;9.876;2023-02-13T03:03:59;103509.97;;;18.54;45.22
56400;BME280;42298;53.638;9.876;2023-02-13T03:06:47;103507.50;;;18.52;45.37
56400;BME280;42298;53.638;9.876;2023-02-13T03:09:19;103509.16;;;18.53;45.93
56400;BME280;42298;53.638;9.876;2023-02-13T03:12:07;103505.16;;;18.59;45.12
56400;BME280;42298;53.638;9.876;2023-02-13T03:14:51;103509.53;;;18.47;45.83
56400;BME280;42298;53.638;9.876;2023-02-13T03:17:17;103502.50;;;18.49;45.17
56400;BME280;42298;53.638;9.876;2023-02-13T03:20:31;103512.66;;;18.64;45.48
56400;BME280;42298;53.638;9.876;2023-02-13T03:23:16;103506.16;;;18.68;45.19
56400;BME280;42298;53.638;9.876;2023-02-13T03:28:56;103515.50;;;18.59;45.29
56400;BME280;42298;53.638;9.876;2023-02-13T03:32:24;103516.38;;;18.54;45.31
56400;BME280;42298;53.638;9.876;2023-02-13T03:34:53;103512.78;;;18.54;45.03
56400;BME280;42298;53.638;9.876;2023-02-13T03:37:43;103518.06;;;18.55;45.35
56400;BME280;42298;53.638;9.876;2023-02-13T03:43:07;103521.44;;;18.52;44.94
56400;BME280;42298;53.638;9.876;2023-02-13T03:45:37;103521.66;;;18.56;45.21
56400;BME280;42298;53.638;9.876;2023-02-13T03:48:30;103521.38;;;18.57;45.12
56400;BME280;42298;53.638;9.876;2023-02-13T03:51:27;103529.69;;;18.62;44.69
56400;BME280;42298;53.638;9.876;2023-02-13T03:54:11;103523.88;;;18.59;44.68
56400;BME280;42298;53.638;9.876;2023-02-13T03:56:41;103523.81;;;18.35;45.29
56400;BME280;42298;53.638;9.876;2023-02-13T03:59:29;103525.47;;;18.65;45.05
56400;BME280;42298;53.638;9.876;2023-02-13T04:02:13;103524.22;;;18.76;44.20
56400;BME280;42298;53.638;9.876;2023-02-13T04:04:49;103520.69;;;18.70;44.64
56400;BME280;42298;53.638;9.876;2023-02-13T04:07:18;103529.69;;;18.62;44.23
56400;BME280;42298;53.638;9.876;2023-02-13T04:09:59;103523.28;;;18.62;44.61
56400;BME280;42298;53.638;9.876;2023-02-13T04:15:35;103521.16;;;18.54;44.60
56400;BME280;42298;53.638;9.876;2023-02-13T04:18:10;103529.66;;;18.44;44.77
56400;BME280;42298;53.638;9.876;2023-02-13T04:20:38;103517.75;;;18.28;45.09
56400;BME280;42298;53.638;9.876;2023-02-13T04:23:08;103511.16;;;18.48;44.70
56400;BME280;42298;53.638;9.876;2023-02-13T04:25:36;103521.50;;;18.47;44.80
56400;BME280;42298;53.638;9.876;2023-02-13T04:28:03;103525.81;;;18.35;44.76
56400;BME280;42298;53.638;9.876;2023-02-13T04:30:28;103521.41;;;18.29;44.77
56400;BME280;42298;53.638;9.876;2023-02-13T04:32:55;103510.28;;;18.24;45.03
56400;BME280;42298;53.638;9.876;2023-02-13T04:35:21;103515.75;;;18.34;44.59
56400;BME280;42298;53.638;9.876;2023-02-13T04:37:47;103504.69;;;18.24;44.69
56400;BME280;42298;53.638;9.876;2023-02-13T04:40:13;103518.03;;;18.32;44.66
56400;BME280;42298;53.638;9.876;2023-02-13T04:42:38;103516.34;;;18.31;45.12
56400;BME280;42298;53.638;9.876;2023-02-13T04:45:04;103508.56;;;18.28;45.05
56400;BME280;42298;53.638;9.876;2023-02-13T04:47:29;103515.22;;;18.32;44.80
56400;BME280;42298;53.638;9.876;2023-02-13T04:49:54;103520.19;;;18.40;44.64
56400;BME280;42298;53.638;9.876;2023-02-13T04:52:20;103513.25;;;18.32;44.25
56400;BME280;42298;53.638;9.876;2023-02-13T04:54:46;103523.56;;;18.37;45.02
56400;BME280;42298;53.638;9.876;2023-02-13T04:57:11;103514.09;;;18.38;44.46
56400;BME280;42298;53.638;9.876;2023-02-13T04:59:37;103511.59;;;18.31;44.47
56400;BME280;42298;53.638;9.876;2023-02-13T05:02:02;103522.75;;;18.31;44.87
56400;BME280;42298;53.638;9.876;2023-02-13T05:04:29;103518.78;;;18.42;44.66
56400;BME280;42298;53.638;9.876;2023-02-13T05:06:54;103513.19;;;18.42;44.52
56400;BME280;42298;53.638;9.876;2023-02-13T05:09:19;103512.94;;;18.34;44.35
56400;BME280;42298;53.638;9.876;2023-02-13T05:11:45;103517.34;;;18.45;44.65
56400;BME280;42298;53.638;9.876;2023-02-13T05:14:11;103518.94;;;18.51;44.72
56400;BME280;42298;53.638;9.876;2023-02-13T05:16:36;103505.22;;;18.54;44.00
56400;BME280;42298;53.638;9.876;2023-02-13T05:19:02;103504.44;;;18.49;44.88
56400;BME280;42298;53.638;9.876;2023-02-13T05:21:27;103495.59;;;18.65;44.49
56400;BME280;42298;53.638;9.876;2023-02-13T05:24:11;103502.91;;;18.61;43.64
56400;BME280;42298;53.638;9.876;2023-02-13T05:26:36;103513.28;;;18.56;44.54
56400;BME280;42298;53.638;9.876;2023-02-13T05:29:02;103514.84;;;18.43;44.31
56400;BME280;42298;53.638;9.876;2023-02-13T05:31:42;103518.03;;;18.32;44.44
56400;BME280;42298;53.638;9.876;2023-02-13T05:34:08;103522.16;;;18.34;44.89
56400;BME280;42298;53.638;9.876;2023-02-13T05:36:33;103519.09;;;18.36;44.95
56400;BME280;42298;53.638;9.876;2023-02-13T05:38:59;103508.56;;;18.28;44.51
56400;BME280;42298;53.638;9.876;2023-02-13T05:41:25;103511.72;;;18.21;44.75
56400;BME280;42298;53.638;9.876;2023-02-13T05:43:50;103511.88;;;18.01;44.92
56400;BME280;42298;53.638;9.876;2023-02-13T05:46:15;103515.84;;;17.95;45.46
56400;BME280;42298;53.638;9.876;2023-02-13T05:48:40;103525.00;;;18.01;45.36
56400;BME280;42298;53.638;9.876;2023-02-13T05:51:06;103521.91;;;18.02;45.47
56400;BME280;42298;53.638;9.876;2023-02-13T05:53:31;103524.66;;;18.07;45.08
56400;BME280;42298;53.638;9.876;2023-02-13T05:56:00;103512.66;;;18.07;44.89
56400;BME280;42298;53.638;9.876;2023-02-13T05:58:25;103521.88;;;18.07;45.02
56400;BME280;42298;53.638;9.876;2023-02-13T06:00:55;103534.44;;;18.38;44.69
56400;BME280;42298;53.638;9.876;2023-02-13T06:03:21;103531.69;;;18.33;44.69
56400;BME280;42298;53.638;9.876;2023-02-13T06:05:46;103529.75;;;18.29;44.81
56400;BME280;42298;53.638;9.876;2023-02-13T06:08:11;103536.44;;;18.28;44.53
56400;BME280;42298;53.638;9.876;2023-02-13T06:10:37;103537.59;;;18.27;44.85
56400;BME280;42298;53.638;9.876;2023-02-13T06:13:02;103526.97;;;18.29;45.22
56400;BME280;42298;53.638;9.876;2023-02-13T06:15:28;103528.03;;;18.38;44.71
56400;BME280;42298;53.638;9.876;2023-02-13T06:17:53;103539.66;;;18.45;44.15
56400;BME280;42298;53.638;9.876;2023-02-13T06:20:19;103534.13;;;18.40;44.21
56400;BME280;42298;53.638;9.876;2023-02-13T06:22:50;103531.34;;;18.63;44.13
56400;BME280;42298;53.638;9.876;2023-02-13T06:25:17;103537.09;;;18.48;44.19
56400;BME280;42298;53.638;9.876;2023-02-13T06:27:45;103533.50;;;18.48;44.20
56400;BME280;42298;53.638;9.876;2023-02-13T06:30:10;103541.91;;;18.43;44.46
56400;BME280;42298;53.638;9.876;2023-02-13T06:32:36;103536.63;;;18.41;44.38
56400;BME280;42298;53.638;9.876;2023-02-13T06:35:01;103540.22;;;18.47;44.49
56400;BME280;42298;53.638;9.876;2023-02-13T06:37:27;103549.53;;;18.61;44.01
56400;BME280;42298;53.638;9.876;2023-02-13T06:39:52;103554.75;;;18.44;43.96
56400;BME280;42298;53.638;9.876;2023-02-13T06:42:17;103553.75;;;18.30;44.34
56400;BME280;42298;53.638;9.876;2023-02-13T06:44:43;103550.97;;;18.30;44.51
56400;BME280;42298;53.638;9.876;2023-02-13T06:47:09;103551.00;;;18.25;44.60
56400;BME280;42298;53.638;9.876;2023-02-13T06:49:34;103560.22;;;18.25;44.21
56400;BME280;42298;53.638;9.876;2023-02-13T06:51:59;103564.66;;;18.26;44.84
56400;BME280;42298;53.638;9.876;2023-02-13T06:54:24;103566.03;;;18.29;44.21
56400;BME280;42298;53.638;9.876;2023-02-13T06:56:50;103572.41;;;18.34;44.49
56400;BME280;42298;53.638;9.876;2023-02-13T06:59:15;103577.97;;;18.34;44.30
56400;BME280;42298;53.638;9.876;2023-02-13T07:01:40;103580.47;;;18.36;44.23
56400;BME280;42298;53.638;9.876;2023-02-13T07:04:06;103575.97;;;18.45;44.33
56400;BME280;42298;53.638;9.876;2023-02-13T07:06:31;103585.97;;;18.46;44.09
56400;BME280;42298;53.638;9.876;2023-02-13T07:08:56;103587.66;;;18.47;43.86
56400;BME280;42298;53.638;9.876;2023-02-13T07:11:23;103593.63;;;18.64;44.08
56400;BME280;42298;53.638;9.876;2023-02-13T07:13:49;103597.28;;;18.59;43.81
56400;BME280;42298;53.638;9.876;2023-02-13T07:16:14;103585.88;;;18.56;43.72
56400;BME280;42298;53.638;9.876;2023-02-13T07:18:40;103583.38;;;18.54;43.87
56400;BME280;42298;53.638;9.876;2023-02-13T07:21:06;103589.22;;;18.58;43.95
56400;BME280;42298;53.638;9.876;2023-02-13T07:23:31;103586.38;;;18.63;43.99
56400;BME280;42298;53.638;9.876;2023-02-13T07:25:59;103583.47;;;18.73;43.54
56400;BME280;42298;53.638;9.876;2023-02-13T07:30:53;103583.09;;;18.56;43.82
56400;BME280;42298;53.638;9.876;2023-02-13T07:33:19;103588.38;;;18.57;44.06
56400;BME280;42298;53.638;9.876;2023-02-13T07:35:51;103583.38;;;18.54;43.71
56400;BME280;42298;53.638;9.876;2023-02-13T07:38:17;103588.38;;;18.29;44.62
56400;BME280;42298;53.638;9.876;2023-02-13T07:43:14;103593.50;;;18.17;44.84
56400;BME280;42298;53.638;9.876;2023-02-13T07:45:39;103601.50;;;18.23;44.51
56400;BME280;42298;53.638;9.876;2023-02-13T07:48:04;103595.13;;;18.23;44.83
56400;BME280;42298;53.638;9.876;2023-02-13T07:50:30;103602.94;;;18.21;44.81
56400;BME280;42298;53.638;9.876;2023-02-13T07:53:00;103594.16;;;18.37;44.84
56400;BME280;42298;53.638;9.876;2023-02-13T07:55:29;103605.84;;;18.68;44.17
56400;BME280;42298;53.638;9.876;2023-02-13T07:57:55;103602.63;;;18.27;44.78
56400;BME280;42298;53.638;9.876;2023-02-13T08:00:21;103609.66;;;18.48;44.77
56400;BME280;42298;53.638;9.876;2023-02-13T08:02:47;103611.16;;;18.41;44.34
56400;BME280;42298;53.638;9.876;2023-02-13T08:05:13;103610.09;;;18.32;44.46
56400;BME280;42298;53.638;9.876;2023-02-13T08:07:38;103605.72;;;18.21;44.95
56400;BME280;42298;53.638;9.876;2023-02-13T08:10:07;103601.72;;;18.32;44.71
56400;BME280;42298;53.638;9.876;2023-02-13T08:12:52;103613.97;;;18.36;44.79
56400;BME280;42298;53.638;9.876;2023-02-13T08:15:17;103587.25;;;18.25;44.92
56400;BME280;42298;53.638;9.876;2023-02-13T08:17:43;103594.84;;;18.19;44.76
56400;BME280;42298;53.638;9.876;2023-02-13T08:20:08;103603.78;;;18.21;45.60
56400;BME280;42298;53.638;9.876;2023-02-13T08:22:38;103605.59;;;18.41;44.86
56400;BME280;42298;53.638;9.876;2023-02-13T08:25:04;103601.16;;;18.35;45.00
56400;BME280;42298;53.638;9.876;2023-02-13T08:27:30;103576.06;;;18.30;44.51
56400;BME280;42298;53.638;9.876;2023-02-13T08:29:57;103596.53;;;18.54;44.29
56400;BME280;42298;53.638;9.876;2023-02-13T08:32:23;103603.13;;;18.63;44.53
56400;BME280;42298;53.638;9.876;2023-02-13T08:34:57;103585.38;;;18.77;44.27
56400;BME280;42298;53.638;9.876;2023-02-13T08:37:25;103610.25;;;18.74;44.39
56400;BME280;42298;53.638;9.876;2023-02-13T08:39:53;103587.53;;;18.85;44.08
56400;BME280;42298;53.638;9.876;2023-02-13T08:42:19;103602.84;;;18.88;44.24
56400;BME280;42298;53.638;9.876;2023-02-13T08:44:44;103611.69;;;18.95;43.18
56400;BME280;42298;53.638;9.876;2023-02-13T08:47:10;103608.00;;;18.99;43.58
56400;BME280;42298;53.638;9.876;2023-02-13T08:49:35;103595.31;;;18.88;43.67
56400;BME280;42298;53.638;9.876;2023-02-13T08:52:01;103610.50;;;19.01;43.72
56400;BME280;42298;53.638;9.876;2023-02-13T08:54:28;103601.19;;;18.87;43.48
56400;BME280;42298;53.638;9.876;2023-02-13T08:56:53;103605.47;;;18.79;43.76
56400;BME280;42298;53.638;9.876;2023-02-13T08:59:19;103613.91;;;18.98;43.98
56400;BME280;42298;53.638;9.876;2023-02-13T09:01:46;103616.63;;;19.03;43.86
56400;BME280;42298;53.638;9.876;2023-02-13T09:04:14;103602.66;;;18.79;43.89
56400;BME280;42298;53.638;9.876;2023-02-13T09:06:42;103609.63;;;18.53;44.21
56400;BME280;42298;53.638;9.876;2023-02-13T09:09:07;103598.91;;;18.37;44.31
56400;BME280;42298;53.638;9.876;2023-02-13T09:11:33;103606.56;;;18.55;44.46
56400;BME280;42298;53.638;9.876;2023-02-13T09:13:58;103597.59;;;18.58;44.06
56400;BME280;42298;53.638;9.876;2023-02-13T09:16:23;103609.44;;;18.73;44.09
56400;BME280;42298;53.638;9.876;2023-02-13T09:18:57;103604.50;;;18.89;43.55
56400;BME280;42298;53.638;9.876;2023-02-13T09:21:23;103606.88;;;18.77;44.13
56400;BME280;42298;53.638;9.876;2023-02-13T09:23:49;103609.16;;;18.75;43.21
56400;BME280;42298;53.638;9.876;2023-02-13T09:26:19;103613.41;;;18.67;43.83
56400;BME280;42298;53.638;9.876;2023-02-13T09:28:44;103597.84;;;18.61;44.12
56400;BME280;42298;53.638;9.876;2023-02-13T09:31:18;103607.97;;;19.05;43.46
56400;BME280;42298;53.638;9.876;2023-02-13T09:33:46;103592.28;;;18.85;43.21
56400;BME280;42298;53.638;9.876;2023-02-13T09:36:16;103595.19;;;18.98;42.82
56400;BME280;42298;53.638;9.876;2023-02-13T09:38:43;103607.13;;;19.04;43.15
56400;BME280;42298;53.638;9.876;2023-02-13T09:41:28;103597.09;;;19.27;43.08
56400;BME280;42298;53.638;9.876;2023-02-13T09:49:52;103624.78;;;19.23;42.49
56400;BME280;42298;53.638;9.876;2023-02-13T09:52:18;103597.50;;;18.91;42.86
56400;BME280;42298;53.638;9.876;2023-02-13T09:54:43;103617.19;;;19.05;42.58
56400;BME280;42298;53.638;9.876;2023-02-13T09:57:26;103626.94;;;19.31;42.15
56400;BME280;42298;53.638;9.876;2023-02-13T10:00:12;103617.91;;;19.39;41.95
56400;BME280;42298;53.638;9.876;2023-02-13T10:03:10;103615.25;;;19.29;42.05
56400;BME280;42298;53.638;9.876;2023-02-13T10:08:33;103621.50;;;19.16;42.63
56400;BME280;42298;53.638;9.876;2023-02-13T10:16:37;103599.38;;;19.20;42.35
56400;BME280;42298;53.638;9.876;2023-02-13T10:19:57;103608.25;;;19.27;42.42
56400;BME280;42298;53.638;9.876;2023-02-13T10:28:05;103599.13;;;18.98;42.70
56400;BME280;42298;53.638;9.876;2023-02-13T10:30:42;103609.88;;;19.09;43.09
56400;BME280;42298;53.638;9.876;2023-02-13T10:33:16;103582.47;;;19.11;42.94
56400;BME280;42298;53.638;9.876;2023-02-13T10:38:19;103597.94;;;19.27;42.63
56400;BME280;42298;53.638;9.876;2023-02-13T10:47:28;103608.25;;;19.27;42.25
56400;BME280;42298;53.638;9.876;2023-02-13T10:53:36;103607.16;;;19.46;42.03
56400;BME280;42298;53.638;9.876;2023-02-13T10:56:22;103597.34;;;19.25;42.38
56400;BME280;42298;53.638;9.876;2023-02-13T11:01:40;103596.19;;;19.31;42.19
56400;BME280;42298;53.638;9.876;2023-02-13T11:04:11;103592.72;;;19.58;42.16
56400;BME280;42298;53.638;9.876;2023-02-13T11:06:40;103579.22;;;19.65;42.06
56400;BME280;42298;53.638;9.876;2023-02-13T11:09:16;103578.75;;;19.39;42.64
56400;BME280;42298;53.638;9.876;2023-02-13T11:11:42;103579.06;;;19.38;42.23
56400;BME280;42298;53.638;9.876;2023-02-13T11:14:16;103587.22;;;19.71;42.05
56400;BME280;42298;53.638;9.876;2023-02-13T11:19:33;103601.50;;;19.88;41.75
56400;BME280;42298;53.638;9.876;2023-02-13T11:22:14;103591.16;;;19.70;41.64
56400;BME280;42298;53.638;9.876;2023-02-13T11:24:42;103573.75;;;19.55;42.29
56400;BME280;42298;53.638;9.876;2023-02-13T11:27:22;103574.13;;;19.67;41.83
56400;BME280;42298;53.638;9.876;2023-02-13T11:29:59;103588.28;;;19.75;42.04
56400;BME280;42298;53.638;9.876;2023-02-13T11:32:28;103589.03;;;19.62;41.97
56400;BME280;42298;53.638;9.876;2023-02-13T11:34:53;103559.50;;;19.38;41.85
56400;BME280;42298;53.638;9.876;2023-02-13T11:37:28;103564.56;;;19.54;41.69
56400;BME280;42298;53.638;9.876;2023-02-13T11:40:51;103559.94;;;19.45;42.09
56400;BME280;42298;53.638;9.876;2023-02-13T11:43:24;103561.78;;;19.54;42.21
56400;BME280;42298;53.638;9.876;2023-02-13T11:49:05;103579.59;;;19.77;42.30
56400;BME280;42298;53.638;9.876;2023-02-13T11:51:45;103573.41;;;19.80;41.01
56400;BME280;42298;53.638;9.876;2023-02-13T11:56:54;103570.44;;;19.71;41.63
56400;BME280;42298;53.638;9.876;2023-02-13T11:59:24;103586.06;;;19.91;42.00
56400;BME280;42298;53.638;9.876;2023-02-13T12:04:53;103579.63;;;20.09;40.97
56400;BME280;42298;53.638;9.876;2023-02-13T12:07:23;103561.19;;;19.89;40.50
56400;BME280;42298;53.638;9.876;2023-02-13T12:12:27;103565.19;;;20.02;40.90
56400;BME280;42298;53.638;9.876;2023-02-13T12:14:54;103554.50;;;19.72;40.67
56400;BME280;42298;53.638;9.876;2023-02-13T12:17:25;103561.59;;;19.83;40.29
56400;BME280;42298;53.638;9.876;2023-02-13T12:19:53;103559.78;;;19.55;40.44
56400;BME280;42298;53.638;9.876;2023-02-13T12:23:22;103564.91;;;19.85;39.82
56400;BME280;42298;53.638;9.876;2023-02-13T12:25:36;103563.50;;;19.87;40.11
56400;BME280;42298;53.638;9.876;2023-02-13T12:41:27;103559.00;;;20.23;38.84
56400;BME280;42298;53.638;9.876;2023-02-13T12:44:03;103564.59;;;19.86;38.90
56400;BME280;42298;53.638;9.876;2023-02-13T12:52:24;103554.63;;;19.99;38.77
56400;BME280;42298;53.638;9.876;2023-02-13T13:05:46;103547.50;;;19.88;38.56
56400;BME280;42298;53.638;9.876;2023-02-13T13:24:40;103542.09;;;19.78;38.37
56400;BME280;42298;53.638;9.876;2023-02-13T13:27:25;103528.34;;;19.81;38.57
56400;BME280;42298;53.638;9.876;2023-02-13T13:32:41;103531.75;;;19.78;38.70
56400;BME280;42298;53.638;9.876;2023-02-13T13:35:18;103519.22;;;19.89;38.65
56400;BME280;42298;53.638;9.876;2023-02-13T13:41:11;103528.75;;;20.07;38.38
56400;BME280;42298;53.638;9.876;2023-02-13T13:44:18;103536.69;;;20.18;38.44
56400;BME280;42298;53.638;9.876;2023-02-13T13:47:15;103518.19;;;19.85;38.25
56400;BME280;42298;53.638;9.876;2023-02-13T13:49:57;103529.06;;;19.87;39.24
56400;BME280;42298;53.638;9.876;2023-02-13T13:54:59;103521.72;;;19.91;38.94
56400;BME280;42298;53.638;9.876;2023-02-13T14:05:28;103525.19;;;20.01;38.17
56400;BME280;42298;53.638;9.876;2023-02-13T14:07:59;103532.16;;;20.04;38.26
56400;BME280;42298;53.638;9.876;2023-02-13T14:20:54;103536.47;;;19.96;37.43
56400;BME280;42298;53.638;9.876;2023-02-13T14:23:45;103531.81;;;19.92;37.97
56400;BME280;42298;53.638;9.876;2023-02-13T14:26:32;103531.88;;;19.87;37.99
56400;BME280;42298;53.638;9.876;2023-02-13T14:37:16;103533.31;;;19.84;38.14
56400;BME280;42298;53.638;9.876;2023-02-13T14:40:27;103533.03;;;19.86;38.33
56400;BME280;42298;53.638;9.876;2023-02-13T14:42:59;103513.09;;;19.74;37.96
56400;BME280;42298;53.638;9.876;2023-02-13T14:48:12;103526.50;;;19.90;38.15
56400;BME280;42298;53.638;9.876;2023-02-13T14:50:45;103529.13;;;20.00;37.29
56400;BME280;42298;53.638;9.876;2023-02-13T14:53:35;103537.41;;;19.92;37.46
56400;BME280;42298;53.638;9.876;2023-02-13T14:56:12;103532.34;;;19.75;37.40
56400;BME280;42298;53.638;9.876;2023-02-13T15:01:33;103525.06;;;19.74;38.04
56400;BME280;42298;53.638;9.876;2023-02-13T15:04:14;103523.84;;;19.80;37.34
56400;BME280;42298;53.638;9.876;2023-02-13T15:09:31;103519.66;;;19.83;37.48
56400;BME280;42298;53.638;9.876;2023-02-13T15:11:58;103521.31;;;19.65;37.11
56400;BME280;42298;53.638;9.876;2023-02-13T15:22:06;103493.72;;;19.03;38.17
56400;BME280;42298;53.638;9.876;2023-02-13T15:30:27;103513.47;;;19.67;37.31
56400;BME280;42298;53.638;9.876;2023-02-13T15:33:21;103494.44;;;19.51;37.48
56400;BME280;42298;53.638;9.876;2023-02-13T15:38:34;103516.72;;;19.56;37.53
56400;BME280;42298;53.638;9.876;2023-02-13T15:43:41;103505.72;;;19.22;37.69
56400;BME280;42298;53.638;9.876;2023-02-13T15:51:27;103486.31;;;19.12;37.80
56400;BME280;42298;53.638;9.876;2023-02-13T15:56:43;103493.13;;;19.25;37.72
56400;BME280;42298;53.638;9.876;2023-02-13T15:59:09;103496.25;;;18.99;37.47
56400;BME280;42298;53.638;9.876;2023-02-13T16:01:35;103482.69;;;18.93;37.65
56400;BME280;42298;53.638;9.876;2023-02-13T16:04:05;103483.00;;;19.10;37.35
56400;BME280;42298;53.638;9.876;2023-02-13T16:06:43;103477.69;;;19.09;36.74
56400;BME280;42298;53.638;9.876;2023-02-13T16:09:32;103495.25;;;19.14;37.12
56400;BME280;42298;53.638;9.876;2023-02-13T16:12:19;103494.16;;;19.10;37.35
56400;BME280;42298;53.638;9.876;2023-02-13T16:14:56;103466.59;;;18.85;37.79
56400;BME280;42298;53.638;9.876;2023-02-13T16:17:30;103487.13;;;18.94;37.86
56400;BME280;42298;53.638;9.876;2023-02-13T16:20:17;103482.00;;;19.01;36.90
56400;BME280;42298;53.638;9.876;2023-02-13T16:22:46;103483.44;;;18.98;37.28
56400;BME280;42298;53.638;9.876;2023-02-13T16:25:29;103480.59;;;18.80;37.65
56400;BME280;42298;53.638;9.876;2023-02-13T16:30:36;103481.00;;;18.92;37.68
56400;BME280;42298;53.638;9.876;2023-02-13T16:35:44;103477.59;;;18.76;38.28
56400;BME280;42298;53.638;9.876;2023-02-13T16:41:50;103478.09;;;19.02;37.20
56400;BME280;42298;53.638;9.876;2023-02-13T16:46:41;103483.13;;;19.00;37.86
56400;BME280;42298;53.638;9.876;2023-02-13T16:49:22;103494.66;;;19.17;37.21